Time;durP1;ratioP1;P1;durP2;ratioP2;P2;SDS_P1;SDS_P2;PMS_P1;PMS_P2;Temp;Humidity;BMP_temperature;BMP_pressure;BME280_temperature;BME280_humidity;BME280_pressure;Samples;Min_cycle;Max_cycle;Signal;HPM_P1;HPM_P2
2021/06/21 00:01:57;;;;;;;18.08;14.30;;;;;;;;;;5049507;28;20407;-94
2021/06/21 00:04:24;;;;;;;17.23;14.60;;;;;;;;;;5048488;28;20483;-95
2021/06/21 00:06:52;;;;;;;18.33;15.00;;;;;;;;;;5047676;28;20411;-94
2021/06/21 00:09:19;;;;;;;17.67;14.77;;;;;;;;;;5048860;28;20398;-96
2021/06/21 00:11:48;;;;;;;20.85;15.18;;;;;;;;;;5049122;28;20755;-96
2021/06/21 00:14:17;;;;;;;16.20;14.15;;;;;;;;;;5047189;28;20533;-94
2021/06/21 00:16:44;;;;;;;19.10;15.10;;;;;;;;;;5046777;28;20404;-96
2021/06/21 00:19:11;;;;;;;18.23;14.60;;;;;;;;;;5048862;28;20759;-95
2021/06/21 00:21:39;;;;;;;17.85;14.90;;;;;;;;;;5048533;28;20495;-96
2021/06/21 00:24:07;;;;;;;17.05;14.80;;;;;;;;;;5044246;28;20408;-95
2021/06/21 00:26:35;;;;;;;20.00;15.02;;;;;;;;;;5046436;28;20415;-95
2021/06/21 00:29:03;;;;;;;19.23;15.00;;;;;;;;;;5046566;28;20404;-96
2021/06/21 00:31:31;;;;;;;17.73;14.65;;;;;;;;;;5044557;28;20400;-96
2021/06/21 00:33:58;;;;;;;18.65;15.15;;;;;;;;;;5047194;28;20427;-95
2021/06/21 00:36:25;;;;;;;16.67;14.97;;;;;;;;;;5039953;28;20417;-94
2021/06/21 00:38:52;;;;;;;18.63;15.65;;;;;;;;;;5047276;28;20437;-96
2021/06/21 00:41:19;;;;;;;17.13;15.13;;;;;;;;;;5048823;28;20471;-95
2021/06/21 00:43:46;;;;;;;19.58;14.93;;;;;;;;;;5043697;28;20839;-94
2021/06/21 00:46:15;;;;;;;17.42;15.32;;;;;;;;;;5049244;28;20654;-96
2021/06/21 00:48:42;;;;;;;17.73;15.82;;;;;;;;;;5048099;28;20818;-95
2021/06/21 00:51:10;;;;;;;17.50;15.70;;;;;;;;;;5048050;28;20502;-96
2021/06/21 00:53:37;;;;;;;21.08;16.00;;;;;;;;;;5047478;28;20427;-96
2021/06/21 00:56:05;;;;;;;18.83;16.20;;;;;;;;;;5045718;28;20418;-95
2021/06/21 00:58:32;;;;;;;18.00;16.17;;;;;;;;;;5039905;28;20431;-95
2021/06/21 01:00:59;;;;;;;17.75;16.02;;;;;;;;;;5045238;28;20890;-95
2021/06/21 01:03:28;;;;;;;19.50;16.27;;;;;;;;;;5009845;28;20408;-96
2021/06/21 01:05:55;;;;;;;18.00;16.13;;;;;;;;;;5043372;28;20400;-95
2021/06/21 01:08:22;;;;;;;18.08;16.00;;;;;;;;;;5039984;28;20406;-95
2021/06/21 01:10:56;;;;;;;22.05;16.10;;;;;;;;;;5044555;28;20407;-94
2021/06/21 01:13:37;;;;;;;17.08;15.02;;;;;;;;;;5049235;28;20413;-96
2021/06/21 01:16:11;;;;;;;17.92;15.00;;;;;;;;;;5047580;28;20909;-95
2021/06/21 01:18:49;;;;;;;17.42;14.75;;;;;;;;;;5047588;28;20418;-96
2021/06/21 01:21:55;;;;;;;18.33;14.88;;;;;;;;;;5044249;28;20523;-96
2021/06/21 01:25:05;;;;;;;16.85;15.07;;;;;;;;;;5038557;28;20399;-95
2021/06/21 01:27:55;;;;;;;16.25;14.55;;;;;;;;;;5045436;28;20878;-96
2021/06/21 01:30:25;;;;;;;16.45;14.55;;;;;;;;;;5044761;28;20788;-96
2021/06/21 01:32:56;;;;;;;20.85;14.77;;;;;;;;;;5046948;28;20414;-96
2021/06/21 01:35:30;;;;;;;17.92;15.65;;;;;;;;;;5045711;28;20771;-95
2021/06/21 01:38:01;;;;;;;18.40;15.25;;;;;;;;;;5045747;28;20411;-96
2021/06/21 01:40:31;;;;;;;19.17;15.00;;;;;;;;;;5045917;28;20766;-95
2021/06/21 01:43:02;;;;;;;22.15;15.23;;;;;;;;;;5041703;28;20421;-95
2021/06/21 01:45:31;;;;;;;18.13;15.80;;;;;;;;;;5036588;28;20416;-95
2021/06/21 01:48:01;;;;;;;18.95;16.15;;;;;;;;;;5039093;28;20411;-95
2021/06/21 01:50:30;;;;;;;19.98;16.58;;;;;;;;;;5046784;28;20404;-95
2021/06/21 01:53:05;;;;;;;21.05;17.48;;;;;;;;;;5045583;28;20986;-96
2021/06/21 01:55:34;;;;;;;21.27;17.60;;;;;;;;;;5039935;28;20434;-95
2021/06/21 01:58:02;;;;;;;22.10;17.70;;;;;;;;;;5043761;28;20419;-96
2021/06/21 02:00:30;;;;;;;19.70;16.48;;;;;;;;;;5041781;28;21214;-95
2021/06/21 02:03:01;;;;;;;18.80;16.75;;;;;;;;;;5047460;28;20418;-95
2021/06/21 02:05:31;;;;;;;22.50;17.33;;;;;;;;;;5044066;28;20454;-96
2021/06/21 02:07:59;;;;;;;21.55;17.45;;;;;;;;;;5047120;28;21284;-96
2021/06/21 02:10:26;;;;;;;20.35;16.63;;;;;;;;;;5038227;28;20394;-96
2021/06/21 02:12:55;;;;;;;20.27;17.60;;;;;;;;;;5048274;28;21188;-95
2021/06/21 02:15:22;;;;;;;20.42;16.83;;;;;;;;;;5047586;28;20420;-95
2021/06/21 02:17:51;;;;;;;20.63;17.40;;;;;;;;;;5047742;28;20490;-95
2021/06/21 02:20:22;;;;;;;21.10;17.38;;;;;;;;;;5047186;28;20504;-95
2021/06/21 02:22:50;;;;;;;20.02;17.92;;;;;;;;;;5036452;28;20409;-96
2021/06/21 02:25:17;;;;;;;20.92;17.48;;;;;;;;;;5046704;28;20504;-95
2021/06/21 02:27:46;;;;;;;19.48;17.38;;;;;;;;;;5047660;28;20418;-96
2021/06/21 02:30:17;;;;;;;19.23;17.33;;;;;;;;;;5046867;28;20399;-95
2021/06/21 02:32:46;;;;;;;19.63;17.27;;;;;;;;;;5047430;28;20538;-96
2021/06/21 02:35:15;;;;;;;21.20;17.30;;;;;;;;;;5038759;28;20417;-95
2021/06/21 02:37:44;;;;;;;21.80;16.92;;;;;;;;;;5047234;28;20408;-95
2021/06/21 02:40:14;;;;;;;21.45;17.23;;;;;;;;;;5042047;28;20399;-95
2021/06/21 02:42:41;;;;;;;19.50;17.42;;;;;;;;;;5031082;28;20410;-96
2021/06/21 02:45:10;;;;;;;21.92;18.05;;;;;;;;;;5048510;28;20502;-94
2021/06/21 02:47:38;;;;;;;19.92;17.02;;;;;;;;;;5052751;28;20418;-94
2021/06/21 02:50:07;;;;;;;18.90;16.90;;;;;;;;;;5039298;28;20412;-94
2021/06/21 02:52:45;;;;;;;20.48;16.65;;;;;;;;;;5047557;28;20416;-95
2021/06/21 02:55:21;;;;;;;20.27;17.25;;;;;;;;;;5047977;28;20428;-95
2021/06/21 02:57:57;;;;;;;20.07;17.90;;;;;;;;;;5045775;28;20404;-95
2021/06/21 03:00:25;;;;;;;22.42;17.63;;;;;;;;;;5047776;28;20588;-95
2021/06/21 03:02:55;;;;;;;20.08;17.70;;;;;;;;;;5054501;28;20412;-95
2021/06/21 03:05:24;;;;;;;20.05;17.95;;;;;;;;;;5046506;28;20409;-95
2021/06/21 03:07:52;;;;;;;20.15;18.00;;;;;;;;;;5037657;28;20418;-95
2021/06/21 03:10:21;;;;;;;19.98;17.95;;;;;;;;;;5048660;28;20414;-96
2021/06/21 03:12:50;;;;;;;20.90;18.63;;;;;;;;;;5048763;28;20751;-95
2021/06/21 03:15:21;;;;;;;21.40;18.50;;;;;;;;;;5048031;28;20902;-95
2021/06/21 03:17:51;;;;;;;21.08;18.98;;;;;;;;;;5045199;28;20412;-95
2021/06/21 03:20:20;;;;;;;21.80;19.23;;;;;;;;;;5046128;28;20414;-95
2021/06/21 03:22:47;;;;;;;21.17;18.88;;;;;;;;;;5046652;28;20469;-95
2021/06/21 03:25:15;;;;;;;22.63;19.92;;;;;;;;;;5043901;28;20394;-96
2021/06/21 03:27:44;;;;;;;23.52;19.35;;;;;;;;;;5047755;28;20411;-96
2021/06/21 03:30:14;;;;;;;23.75;19.23;;;;;;;;;;5047114;28;20443;-96
2021/06/21 03:32:43;;;;;;;23.10;20.52;;;;;;;;;;5047656;28;20404;-95
2021/06/21 03:35:12;;;;;;;24.20;19.70;;;;;;;;;;5046964;28;20948;-95
2021/06/21 03:37:40;;;;;;;21.90;19.70;;;;;;;;;;5041803;28;20411;-95
2021/06/21 03:40:09;;;;;;;21.10;18.95;;;;;;;;;;5047690;28;20403;-94
2021/06/21 03:42:38;;;;;;;22.52;20.10;;;;;;;;;;5040195;28;20417;-95
2021/06/21 03:45:09;;;;;;;21.93;19.73;;;;;;;;;;5043434;28;20561;-95
2021/06/21 03:47:37;;;;;;;21.92;19.63;;;;;;;;;;5040676;28;20444;-95
2021/06/21 03:50:06;;;;;;;22.58;20.13;;;;;;;;;;5046970;28;20411;-94
2021/06/21 03:52:33;;;;;;;22.80;20.50;;;;;;;;;;5050851;28;20479;-95
2021/06/21 03:55:07;;;;;;;23.00;19.60;;;;;;;;;;5046453;28;20435;-95
2021/06/21 03:57:36;;;;;;;22.35;19.67;;;;;;;;;;5047609;28;20443;-95
2021/06/21 04:00:09;;;;;;;23.60;20.27;;;;;;;;;;5046556;28;20415;-95
2021/06/21 04:02:36;;;;;;;24.17;20.60;;;;;;;;;;5046427;28;20422;-96
2021/06/21 04:05:04;;;;;;;21.85;19.67;;;;;;;;;;5025626;28;20440;-93
2021/06/21 04:07:31;;;;;;;23.38;19.98;;;;;;;;;;5045622;28;20423;-96
2021/06/21 04:09:59;;;;;;;22.85;20.45;;;;;;;;;;5046472;28;20989;-95
2021/06/21 04:12:26;;;;;;;22.27;19.92;;;;;;;;;;5047152;28;20406;-95
2021/06/21 04:14:53;;;;;;;21.95;19.60;;;;;;;;;;5046154;28;20423;-96
2021/06/21 04:17:22;;;;;;;21.55;19.30;;;;;;;;;;5044877;28;20415;-94
2021/06/21 04:19:50;;;;;;;21.95;19.25;;;;;;;;;;5029083;28;20406;-95
2021/06/21 04:22:17;;;;;;;24.10;20.35;;;;;;;;;;5035990;28;20413;-95
2021/06/21 04:24:44;;;;;;;21.65;19.13;;;;;;;;;;5031274;28;20412;-96
2021/06/21 04:27:13;;;;;;;21.50;19.30;;;;;;;;;;5037035;28;20476;-95
2021/06/21 04:29:40;;;;;;;21.77;19.45;;;;;;;;;;5046929;28;20416;-96
2021/06/21 04:32:09;;;;;;;20.77;18.65;;;;;;;;;;5046255;28;20403;-95
2021/06/21 04:34:38;;;;;;;21.33;19.10;;;;;;;;;;5027417;28;20803;-95
2021/06/21 04:37:06;;;;;;;21.00;18.75;;;;;;;;;;5043058;28;20404;-95
2021/06/21 04:39:34;;;;;;;21.25;19.05;;;;;;;;;;5025547;28;20482;-96
2021/06/21 04:42:01;;;;;;;21.38;18.27;;;;;;;;;;5019189;28;20883;-94
2021/06/21 04:44:28;;;;;;;20.20;18.10;;;;;;;;;;5038964;28;20410;-95
2021/06/21 04:46:56;;;;;;;21.67;18.20;;;;;;;;;;5021854;28;20415;-95
2021/06/21 04:49:23;;;;;;;20.33;18.20;;;;;;;;;;5042139;28;20413;-95
2021/06/21 04:51:52;;;;;;;21.13;18.25;;;;;;;;;;5023856;28;20494;-95
2021/06/21 04:54:19;;;;;;;22.55;18.85;;;;;;;;;;5040245;28;20421;-95
2021/06/21 04:56:47;;;;;;;21.30;18.90;;;;;;;;;;5045412;28;20415;-95
2021/06/21 04:59:14;;;;;;;22.65;19.50;;;;;;;;;;5043094;28;20833;-95
2021/06/21 05:01:42;;;;;;;21.88;19.08;;;;;;;;;;5035897;28;20419;-95
2021/06/21 05:04:09;;;;;;;22.35;19.67;;;;;;;;;;5040473;28;20404;-94
2021/06/21 05:06:37;;;;;;;22.63;19.83;;;;;;;;;;5043767;28;21227;-96
2021/06/21 05:09:08;;;;;;;20.92;18.83;;;;;;;;;;5036657;28;20400;-95
2021/06/21 05:11:36;;;;;;;21.23;19.02;;;;;;;;;;5043284;28;20473;-94
2021/06/21 05:14:04;;;;;;;21.80;19.15;;;;;;;;;;5040968;28;20488;-96
2021/06/21 05:16:32;;;;;;;23.15;18.58;;;;;;;;;;5046075;28;20418;-93
2021/06/21 05:18:59;;;;;;;22.00;18.00;;;;;;;;;;5045369;28;20410;-96
2021/06/21 05:21:26;;;;;;;21.10;18.02;;;;;;;;;;5046311;28;20784;-96
2021/06/21 05:23:53;;;;;;;21.63;16.33;;;;;;;;;;5041097;28;20443;-96
2021/06/21 05:26:22;;;;;;;20.83;16.77;;;;;;;;;;5043425;28;20399;-96
2021/06/21 05:28:49;;;;;;;18.77;16.25;;;;;;;;;;5043785;28;20469;-93
2021/06/21 05:31:15;;;;;;;21.92;15.98;;;;;;;;;;5044147;28;20411;-92
2021/06/21 05:33:44;;;;;;;18.67;15.35;;;;;;;;;;5043399;28;20914;-95
2021/06/21 05:36:11;;;;;;;19.42;15.82;;;;;;;;;;5041826;28;20815;-92
2021/06/21 05:38:38;;;;;;;17.02;15.15;;;;;;;;;;5042815;28;20411;-92
2021/06/21 05:41:05;;;;;;;17.60;15.68;;;;;;;;;;5059909;22;20564;-82
2021/06/21 05:43:34;;;;;;;21.85;16.00;;;;;;;;;;5063814;28;20943;-83
2021/06/21 05:46:01;;;;;;;18.92;15.07;;;;;;;;;;5059125;28;20423;-83
2021/06/21 05:48:28;;;;;;;21.08;15.23;;;;;;;;;;5064899;28;21218;-82
2021/06/21 05:50:55;;;;;;;17.10;13.57;;;;;;;;;;5061504;28;20411;-82
2021/06/21 05:53:22;;;;;;;17.85;13.65;;;;;;;;;;5063929;28;20398;-82
2021/06/21 05:55:49;;;;;;;19.55;14.43;;;;;;;;;;5063591;28;20421;-83
2021/06/21 05:58:16;;;;;;;16.55;13.23;;;;;;;;;;5061285;28;20810;-83
2021/06/21 06:00:44;;;;;;;15.07;12.60;;;;;;;;;;5065239;28;20399;-81
2021/06/21 06:03:11;;;;;;;17.15;12.43;;;;;;;;;;5059089;28;20403;-83
2021/06/21 06:05:38;;;;;;;14.73;12.52;;;;;;;;;;5061449;28;20408;-82
2021/06/21 06:08:05;;;;;;;18.20;12.07;;;;;;;;;;5061074;28;20855;-81
2021/06/21 06:10:33;;;;;;;16.13;12.10;;;;;;;;;;5071882;28;20388;-82
2021/06/21 06:13:00;;;;;;;14.23;11.93;;;;;;;;;;5063095;28;20419;-83
2021/06/21 06:15:27;;;;;;;12.77;11.38;;;;;;;;;;5073763;28;20434;-84
2021/06/21 06:17:55;;;;;;;15.00;11.35;;;;;;;;;;5073944;28;20405;-83
2021/06/21 06:20:22;;;;;;;13.48;10.82;;;;;;;;;;5072008;28;20516;-82
2021/06/21 06:22:49;;;;;;;14.27;11.57;;;;;;;;;;5068417;28;20406;-82
2021/06/21 06:25:17;;;;;;;13.25;11.25;;;;;;;;;;5070046;28;20402;-82
2021/06/21 06:27:44;;;;;;;13.07;10.85;;;;;;;;;;5068786;28;20400;-82
2021/06/21 06:30:13;;;;;;;15.20;10.73;;;;;;;;;;5072297;28;20394;-84
2021/06/21 06:32:40;;;;;;;12.43;10.45;;;;;;;;;;5064163;28;20495;-83
2021/06/21 06:35:10;;;;;;;13.07;10.30;;;;;;;;;;5065119;28;20539;-83
2021/06/21 06:37:37;;;;;;;11.93;10.15;;;;;;;;;;5062502;28;20396;-83
2021/06/21 06:40:05;;;;;;;16.73;9.83;;;;;;;;;;5062419;28;20509;-83
2021/06/21 06:42:32;;;;;;;12.95;8.98;;;;;;;;;;5065822;28;20881;-82
2021/06/21 06:44:59;;;;;;;14.43;9.85;;;;;;;;;;5064611;28;20508;-82
2021/06/21 06:47:26;;;;;;;14.35;9.77;;;;;;;;;;5071518;28;20398;-82
2021/06/21 06:49:53;;;;;;;14.30;9.82;;;;;;;;;;5068659;28;20398;-82
2021/06/21 06:52:23;;;;;;;15.45;9.80;;;;;;;;;;5064333;28;20402;-84
2021/06/21 06:56:58;;;;;;;13.18;8.77;;;;;;;;;;5063609;28;20520;-82
2021/06/21 06:57:38;;;;;;;10.27;8.57;;;;;;;;;;5059651;28;20390;-83
2021/06/21 07:00:08;;;;;;;13.02;8.85;;;;;;;;;;5060627;28;20409;-84
2021/06/21 07:02:35;;;;;;;14.75;9.90;;;;;;;;;;5063671;28;20404;-82
2021/06/21 07:05:02;;;;;;;12.88;9.82;;;;;;;;;;5058428;28;20808;-83
2021/06/21 07:07:30;;;;;;;12.48;9.05;;;;;;;;;;5057043;28;20980;-84
2021/06/21 07:09:57;;;;;;;11.10;8.32;;;;;;;;;;5065541;28;20428;-83
2021/06/21 07:12:24;;;;;;;11.98;7.97;;;;;;;;;;5063981;28;20402;-83
2021/06/21 07:14:52;;;;;;;16.63;8.32;;;;;;;;;;5065010;28;20802;-82
2021/06/21 07:17:19;;;;;;;10.97;9.00;;;;;;;;;;5065239;28;20398;-83
2021/06/21 07:19:46;;;;;;;12.63;8.27;;;;;;;;;;5054203;28;20491;-82
2021/06/21 07:22:13;;;;;;;11.82;8.43;;;;;;;;;;5054818;28;20403;-83
2021/06/21 07:24:41;;;;;;;11.75;7.80;;;;;;;;;;5053087;28;20398;-83
2021/06/21 07:27:09;;;;;;;13.07;7.97;;;;;;;;;;5060396;28;20767;-84
2021/06/21 07:29:36;;;;;;;10.88;8.30;;;;;;;;;;5060129;28;20777;-83
2021/06/21 07:32:04;;;;;;;9.05;7.68;;;;;;;;;;5065185;28;20432;-83
2021/06/21 07:34:32;;;;;;;12.98;7.75;;;;;;;;;;5059677;28;20404;-82
2021/06/21 07:36:59;;;;;;;12.00;7.45;;;;;;;;;;5065658;28;20913;-84
2021/06/21 07:39:26;;;;;;;14.80;7.60;;;;;;;;;;5062267;28;20404;-82
2021/06/21 07:41:54;;;;;;;10.25;7.40;;;;;;;;;;5060288;28;20406;-83
2021/06/21 07:44:21;;;;;;;10.77;7.70;;;;;;;;;;5068619;28;20417;-85
2021/06/21 07:46:48;;;;;;;13.45;8.60;;;;;;;;;;5063641;28;20408;-85
2021/06/21 07:49:15;;;;;;;9.02;6.97;;;;;;;;;;5064040;28;20456;-84
2021/06/21 07:51:43;;;;;;;8.53;6.53;;;;;;;;;;5062179;28;20487;-84
2021/06/21 07:54:11;;;;;;;10.43;6.70;;;;;;;;;;5065991;28;20402;-84
2021/06/21 07:56:39;;;;;;;12.60;8.30;;;;;;;;;;5074830;28;20426;-84
2021/06/21 07:59:07;;;;;;;10.85;8.27;;;;;;;;;;5063258;28;20405;-83
2021/06/21 08:01:34;;;;;;;10.65;7.95;;;;;;;;;;5066790;28;20407;-84
2021/06/21 08:04:02;;;;;;;10.38;7.35;;;;;;;;;;5066177;28;20903;-84
2021/06/21 08:06:29;;;;;;;12.57;7.13;;;;;;;;;;5066194;28;21071;-84
2021/06/21 08:08:55;;;;;;;9.45;6.40;;;;;;;;;;5064269;28;20411;-85
2021/06/21 08:11:22;;;;;;;8.30;6.67;;;;;;;;;;5064296;28;20958;-84
2021/06/21 08:13:49;;;;;;;9.48;6.72;;;;;;;;;;5063202;28;20408;-84
2021/06/21 08:16:18;;;;;;;9.27;6.70;;;;;;;;;;5068453;28;20433;-84
2021/06/21 08:18:45;;;;;;;11.30;6.90;;;;;;;;;;5065646;28;20540;-84
2021/06/21 08:21:12;;;;;;;10.95;7.45;;;;;;;;;;5061464;28;20409;-85
2021/06/21 08:23:38;;;;;;;10.88;7.60;;;;;;;;;;5063211;28;20412;-83
2021/06/21 08:26:05;;;;;;;11.35;7.03;;;;;;;;;;5059142;28;20682;-84
2021/06/21 08:28:32;;;;;;;11.52;7.53;;;;;;;;;;5066445;28;20412;-84
2021/06/21 08:31:00;;;;;;;9.52;7.35;;;;;;;;;;5063864;28;21198;-85
2021/06/21 08:33:29;;;;;;;10.02;7.30;;;;;;;;;;5061115;28;20420;-84
2021/06/21 08:35:56;;;;;;;9.00;7.17;;;;;;;;;;5061367;28;20477;-85
2021/06/21 08:38:23;;;;;;;11.85;7.15;;;;;;;;;;5063826;28;20409;-85
2021/06/21 08:40:50;;;;;;;13.13;7.70;;;;;;;;;;5059388;28;20405;-85
2021/06/21 08:43:17;;;;;;;12.53;7.33;;;;;;;;;;5062084;28;20404;-84
2021/06/21 08:45:45;;;;;;;10.15;6.82;;;;;;;;;;5063599;28;20402;-82
2021/06/21 08:48:13;;;;;;;11.27;6.80;;;;;;;;;;5067811;28;20402;-84
2021/06/21 08:50:42;;;;;;;12.63;7.35;;;;;;;;;;5063920;28;20404;-82
2021/06/21 08:53:11;;;;;;;12.25;6.90;;;;;;;;;;5067789;28;20886;-82
2021/06/21 08:55:38;;;;;;;11.57;7.30;;;;;;;;;;5061982;28;20792;-83
2021/06/21 08:58:05;;;;;;;11.60;6.83;;;;;;;;;;5060275;28;20392;-84
2021/06/21 09:00:32;;;;;;;13.87;7.00;;;;;;;;;;5065208;28;20396;-83
2021/06/21 09:03:02;;;;;;;11.45;6.97;;;;;;;;;;5066275;28;20496;-83
2021/06/21 09:05:31;;;;;;;12.38;7.15;;;;;;;;;;5059359;28;20773;-83
2021/06/21 09:08:04;;;;;;;12.87;6.80;;;;;;;;;;5059031;28;20398;-84
2021/06/21 09:10:32;;;;;;;12.18;6.90;;;;;;;;;;5066858;28;20831;-83
2021/06/21 09:13:07;;;;;;;14.93;6.75;;;;;;;;;;5066793;28;20399;-82
2021/06/21 09:15:37;;;;;;;15.47;6.67;;;;;;;;;;5059582;28;20593;-83
2021/06/21 09:18:29;;;;;;;10.57;6.33;;;;;;;;;;5064625;28;20412;-83
2021/06/21 09:21:19;;;;;;;11.68;6.47;;;;;;;;;;5064729;28;20795;-83
2021/06/21 09:23:48;;;;;;;15.70;6.55;;;;;;;;;;5061968;28;20944;-83
2021/06/21 09:26:16;;;;;;;16.55;7.50;;;;;;;;;;5065774;28;20427;-83
2021/06/21 09:28:44;;;;;;;12.52;6.53;;;;;;;;;;5059061;28;20402;-83
2021/06/21 09:31:10;;;;;;;14.68;7.30;;;;;;;;;;5063763;28;20895;-83
2021/06/21 09:33:37;;;;;;;11.60;7.15;;;;;;;;;;5063270;28;20401;-84
2021/06/21 09:36:05;;;;;;;13.80;7.32;;;;;;;;;;5057706;28;20405;-83
2021/06/21 09:38:32;;;;;;;12.38;6.85;;;;;;;;;;5057654;28;20402;-84
2021/06/21 09:41:02;;;;;;;14.40;7.00;;;;;;;;;;5060709;28;20896;-83
2021/06/21 09:43:30;;;;;;;14.73;7.20;;;;;;;;;;5064614;28;20402;-84
2021/06/21 09:46:09;;;;;;;15.07;7.23;;;;;;;;;;5060505;28;20409;-83
2021/06/21 09:48:38;;;;;;;17.90;7.22;;;;;;;;;;5062174;28;20743;-83
2021/06/21 09:51:24;;;;;;;17.67;7.80;;;;;;;;;;5062225;28;20494;-83
2021/06/21 09:53:59;;;;;;;12.75;7.13;;;;;;;;;;5063245;28;20871;-83
2021/06/21 09:56:39;;;;;;;12.77;7.00;;;;;;;;;;5067951;28;20414;-84
2021/06/21 09:59:21;;;;;;;17.38;7.20;;;;;;;;;;5060218;28;20404;-83
2021/06/21 10:02:02;;;;;;;19.25;7.80;;;;;;;;;;5062151;28;20406;-83
2021/06/21 10:04:29;;;;;;;12.07;7.18;;;;;;;;;;5065997;28;20742;-84
2021/06/21 10:06:56;;;;;;;14.40;7.10;;;;;;;;;;5065277;28;20398;-83
2021/06/21 10:09:23;;;;;;;15.13;7.28;;;;;;;;;;5069489;28;20402;-83
2021/06/21 10:11:51;;;;;;;15.90;7.25;;;;;;;;;;5064472;28;20735;-83
2021/06/21 10:14:21;;;;;;;18.48;7.07;;;;;;;;;;5061275;28;20567;-84
2021/06/21 10:16:50;;;;;;;17.52;7.28;;;;;;;;;;5064948;28;20421;-83
2021/06/21 10:19:18;;;;;;;16.48;7.00;;;;;;;;;;5068782;28;20390;-84
2021/06/21 10:21:47;;;;;;;16.38;7.47;;;;;;;;;;5063785;28;20905;-83
2021/06/21 10:24:15;;;;;;;16.80;7.30;;;;;;;;;;5064281;28;20455;-84
2021/06/21 10:26:49;;;;;;;16.08;7.40;;;;;;;;;;5065125;28;21076;-84
2021/06/21 10:29:18;;;;;;;14.15;7.38;;;;;;;;;;5063690;28;20432;-84
2021/06/21 10:31:46;;;;;;;15.02;6.90;;;;;;;;;;5062798;28;20401;-82
2021/06/21 10:34:16;;;;;;;17.48;7.35;;;;;;;;;;5064802;28;20398;-83
2021/06/21 10:36:45;;;;;;;16.25;7.65;;;;;;;;;;5063026;28;21251;-84
2021/06/21 10:39:14;;;;;;;18.40;7.40;;;;;;;;;;5066558;28;20408;-83
2021/06/21 10:41:42;;;;;;;18.50;6.80;;;;;;;;;;5061820;28;20493;-83
2021/06/21 10:44:36;;;;;;;22.38;7.10;;;;;;;;;;5065883;28;20880;-83
2021/06/21 10:47:36;;;;;;;22.30;7.20;;;;;;;;;;5062264;28;20890;-84
2021/06/21 10:50:07;;;;;;;19.75;6.60;;;;;;;;;;5061095;28;20400;-83
2021/06/21 10:52:42;;;;;;;23.13;6.63;;;;;;;;;;5066198;28;20397;-83
2021/06/21 10:55:36;;;;;;;23.40;6.60;;;;;;;;;;5064484;28;20406;-83
2021/06/21 10:58:06;;;;;;;22.13;7.10;;;;;;;;;;5065459;28;20417;-83
2021/06/21 11:00:37;;;;;;;27.05;7.10;;;;;;;;;;5065418;28;20414;-83
2021/06/21 11:03:25;;;;;;;22.83;6.82;;;;;;;;;;5060872;28;20398;-83
2021/06/21 11:05:54;;;;;;;22.75;6.75;;;;;;;;;;5063722;28;20432;-83
2021/06/21 11:08:23;;;;;;;23.95;7.20;;;;;;;;;;5067162;28;20406;-84
2021/06/21 11:10:52;;;;;;;23.92;7.20;;;;;;;;;;5062571;28;20398;-84
2021/06/21 11:13:41;;;;;;;23.05;7.18;;;;;;;;;;5065028;28;20456;-83
2021/06/21 11:16:25;;;;;;;23.13;7.38;;;;;;;;;;5058194;28;20942;-83
2021/06/21 11:19:26;;;;;;;21.88;7.32;;;;;;;;;;5067285;28;20416;-83
2021/06/21 11:21:56;;;;;;;21.73;7.72;;;;;;;;;;5061014;28;20406;-84
2021/06/21 11:24:52;;;;;;;20.88;7.65;;;;;;;;;;5063072;28;20402;-83
2021/06/21 11:27:22;;;;;;;22.85;7.70;;;;;;;;;;5062276;28;20497;-84
2021/06/21 11:29:51;;;;;;;21.77;7.72;;;;;;;;;;5064235;28;20653;-84
2021/06/21 11:32:19;;;;;;;18.13;7.50;;;;;;;;;;5061439;28;20409;-83
2021/06/21 11:34:50;;;;;;;25.52;7.43;;;;;;;;;;5061613;28;20466;-82
2021/06/21 11:37:35;;;;;;;24.38;7.03;;;;;;;;;;5061811;28;20794;-83
2021/06/21 11:40:28;;;;;;;20.75;7.15;;;;;;;;;;5066345;28;20773;-83
2021/06/21 11:43:11;;;;;;;20.75;7.82;;;;;;;;;;5062456;28;20455;-82
2021/06/21 11:45:56;;;;;;;22.27;7.33;;;;;;;;;;5060516;28;20420;-84
2021/06/21 11:48:35;;;;;;;22.30;7.25;;;;;;;;;;5065372;28;20398;-83
2021/06/21 11:51:12;;;;;;;19.00;7.47;;;;;;;;;;5069236;28;20406;-83
2021/06/21 11:53:43;;;;;;;22.23;7.73;;;;;;;;;;5048033;28;20439;-83
2021/06/21 11:56:12;;;;;;;17.20;8.00;;;;;;;;;;5059310;28;20485;-83
2021/06/21 11:58:39;;;;;;;24.23;7.63;;;;;;;;;;5062622;28;20400;-84
2021/06/21 12:01:16;;;;;;;24.45;7.82;;;;;;;;;;5059771;28;20423;-83
2021/06/21 12:03:45;;;;;;;20.75;8.10;;;;;;;;;;5057207;28;20566;-82
2021/06/21 12:06:15;;;;;;;20.15;8.13;;;;;;;;;;5060930;28;20866;-85
2021/06/21 12:08:43;;;;;;;20.80;8.30;;;;;;;;;;5059660;28;20408;-84
2021/06/21 12:11:17;;;;;;;19.45;7.50;;;;;;;;;;5058950;28;20900;-83
2021/06/21 12:13:53;;;;;;;23.02;7.78;;;;;;;;;;5063436;28;20476;-83
2021/06/21 12:16:20;;;;;;;21.75;7.40;;;;;;;;;;5061279;28;20410;-82
2021/06/21 12:18:52;;;;;;;25.53;7.07;;;;;;;;;;5064129;28;20398;-82
2021/06/21 12:21:34;;;;;;;25.92;7.30;;;;;;;;;;5062784;28;20938;-82
2021/06/21 12:24:18;;;;;;;20.88;6.75;;;;;;;;;;5061923;28;20410;-82
2021/06/21 12:26:46;;;;;;;27.13;7.28;;;;;;;;;;5064183;28;20807;-83
2021/06/21 12:29:25;;;;;;;27.85;7.55;;;;;;;;;;5062030;28;20400;-83
2021/06/21 12:32:00;;;;;;;24.60;7.47;;;;;;;;;;5058953;28;20429;-84
2021/06/21 12:34:49;;;;;;;29.42;7.57;;;;;;;;;;5060514;28;20873;-84
2021/06/21 12:37:18;;;;;;;28.67;8.20;;;;;;;;;;5057622;28;20915;-83
2021/06/21 12:39:46;;;;;;;26.50;7.47;;;;;;;;;;5061879;28;20449;-83
2021/06/21 12:42:15;;;;;;;31.33;7.10;;;;;;;;;;5063304;28;20410;-83
2021/06/21 12:44:43;;;;;;;25.27;6.73;;;;;;;;;;5065002;28;20445;-83
2021/06/21 12:47:29;;;;;;;33.55;7.63;;;;;;;;;;5064409;28;20999;-83
2021/06/21 12:50:04;;;;;;;30.88;6.53;;;;;;;;;;5061323;28;20482;-83
2021/06/21 12:52:31;;;;;;;26.73;6.75;;;;;;;;;;5058663;28;20893;-83
2021/06/21 12:55:06;;;;;;;29.52;7.45;;;;;;;;;;5058964;28;20414;-83
2021/06/21 12:57:51;;;;;;;28.83;6.60;;;;;;;;;;5063223;28;20422;-83
2021/06/21 13:00:20;;;;;;;27.60;6.78;;;;;;;;;;5059198;28;20778;-83
2021/06/21 13:02:47;;;;;;;22.42;7.03;;;;;;;;;;5059122;28;20490;-83
2021/06/21 13:05:15;;;;;;;28.45;7.53;;;;;;;;;;5063883;28;20398;-83
2021/06/21 13:07:46;;;;;;;25.75;7.68;;;;;;;;;;5063395;28;20499;-83
2021/06/21 13:10:21;;;;;;;27.30;8.10;;;;;;;;;;5056274;28;20417;-84
2021/06/21 13:12:54;;;;;;;28.20;7.43;;;;;;;;;;5059402;28;20527;-84
2021/06/21 13:15:21;;;;;;;22.80;7.07;;;;;;;;;;5065049;28;20483;-83
2021/06/21 13:17:50;;;;;;;27.85;7.65;;;;;;;;;;5057841;28;20433;-83
2021/06/21 13:20:21;;;;;;;27.77;7.38;;;;;;;;;;5064769;28;20487;-84
2021/06/21 13:22:49;;;;;;;21.27;7.18;;;;;;;;;;5058411;28;20409;-83
2021/06/21 13:25:20;;;;;;;25.73;7.30;;;;;;;;;;5061762;28;20421;-83
2021/06/21 13:27:57;;;;;;;24.83;6.70;;;;;;;;;;5064960;28;20491;-84
2021/06/21 13:30:26;;;;;;;24.80;7.53;;;;;;;;;;5061320;28;20407;-84
2021/06/21 13:32:54;;;;;;;28.10;7.23;;;;;;;;;;5066388;28;20404;-83
2021/06/21 13:35:23;;;;;;;23.92;7.20;;;;;;;;;;5067506;28;20403;-84
2021/06/21 13:37:50;;;;;;;29.90;7.65;;;;;;;;;;5059692;28;20423;-83
2021/06/21 13:40:20;;;;;;;20.70;7.22;;;;;;;;;;5060342;28;20388;-83
2021/06/21 13:42:52;;;;;;;32.45;7.68;;;;;;;;;;5062630;28;20396;-84
2021/06/21 13:45:29;;;;;;;25.17;7.13;;;;;;;;;;5062102;28;20468;-84
2021/06/21 13:48:03;;;;;;;24.38;7.30;;;;;;;;;;5060014;28;20398;-83
2021/06/21 13:50:34;;;;;;;27.85;7.40;;;;;;;;;;5065235;28;20429;-84
2021/06/21 13:53:01;;;;;;;22.83;6.47;;;;;;;;;;5064102;28;20402;-82
2021/06/21 13:55:41;;;;;;;23.92;7.03;;;;;;;;;;5061663;28;20394;-83
2021/06/21 13:58:08;;;;;;;23.37;6.80;;;;;;;;;;5065382;28;20453;-83
2021/06/21 14:00:36;;;;;;;27.15;7.15;;;;;;;;;;5066248;28;20401;-83
2021/06/21 14:03:20;;;;;;;24.05;7.38;;;;;;;;;;5061563;28;20916;-84
2021/06/21 14:05:48;;;;;;;22.05;7.03;;;;;;;;;;5064079;28;20404;-83
2021/06/21 14:08:15;;;;;;;28.77;7.15;;;;;;;;;;5061060;28;20403;-84
2021/06/21 14:10:42;;;;;;;25.63;6.68;;;;;;;;;;5063219;28;20413;-84
2021/06/21 14:13:09;;;;;;;23.95;6.63;;;;;;;;;;5065006;28;20398;-84
2021/06/21 14:15:36;;;;;;;23.80;6.63;;;;;;;;;;5057788;28;20459;-84
2021/06/21 14:18:03;;;;;;;25.98;6.95;;;;;;;;;;5060881;28;20423;-82
2021/06/21 14:20:30;;;;;;;28.98;6.72;;;;;;;;;;5070775;28;20402;-84
2021/06/21 14:22:58;;;;;;;27.20;6.70;;;;;;;;;;5061580;28;20469;-84
2021/06/21 14:25:24;;;;;;;29.15;7.10;;;;;;;;;;5065777;28;20398;-83
2021/06/21 14:27:51;;;;;;;27.15;7.43;;;;;;;;;;5062196;28;20415;-82
2021/06/21 14:30:19;;;;;;;30.55;7.22;;;;;;;;;;5065197;28;20413;-83
2021/06/21 14:32:46;;;;;;;28.60;6.80;;;;;;;;;;5063369;28;21004;-84
2021/06/21 14:35:13;;;;;;;30.27;6.40;;;;;;;;;;5063846;28;20396;-83
2021/06/21 14:37:40;;;;;;;29.57;7.00;;;;;;;;;;5068140;28;20432;-83
2021/06/21 14:40:09;;;;;;;26.83;7.07;;;;;;;;;;5067567;28;20812;-83
2021/06/21 14:42:36;;;;;;;31.67;6.17;;;;;;;;;;5065279;28;20450;-83